createdAt,value
2022-08-24T00:01:27.224Z,28.10
2022-08-24T00:03:57.560Z,28.10
2022-08-24T00:06:27.682Z,28.10
2022-08-24T00:08:57.052Z,28.10
2022-08-24T00:11:24.552Z,28.10
2022-08-24T00:13:51.859Z,28.00
2022-08-24T00:16:19.419Z,28.00
2022-08-24T00:18:50.154Z,28.00
2022-08-24T00:21:20.471Z,28.00
2022-08-24T00:23:48.975Z,28.00
2022-08-24T00:26:16.495Z,28.00
2022-08-24T00:28:46.783Z,27.90
2022-08-24T00:31:14.504Z,27.90
2022-08-24T00:33:41.631Z,27.90
2022-08-24T00:36:09.005Z,27.90
2022-08-24T00:38:36.468Z,27.90
2022-08-24T00:41:04.798Z,27.90
2022-08-24T00:43:33.051Z,27.80
2022-08-24T00:46:21.900Z,27.80
2022-08-24T00:49:03.150Z,27.80
2022-08-24T00:51:37.685Z,27.80
2022-08-24T00:54:15.256Z,27.80
2022-08-24T00:56:47.029Z,27.80
2022-08-24T00:59:36.931Z,27.70
2022-08-24T01:02:15.865Z,27.70
2022-08-24T01:04:51.984Z,27.70
2022-08-24T01:07:23.091Z,27.70
2022-08-24T01:09:52.668Z,27.70
2022-08-24T01:12:20.139Z,27.70
2022-08-24T01:14:47.468Z,27.60
2022-08-24T01:17:38.991Z,27.60
2022-08-24T01:20:09.416Z,27.60
2022-08-24T01:23:04.276Z,27.60
2022-08-24T01:25:36.269Z,27.60
2022-08-24T01:28:10.090Z,27.60
2022-08-24T01:30:37.487Z,27.60
2022-08-24T01:33:09.487Z,27.50
2022-08-24T01:35:39.777Z,27.50
2022-08-24T01:38:12.349Z,27.50
2022-08-24T01:40:46.548Z,27.50
2022-08-24T01:43:15.086Z,27.50
2022-08-24T01:45:42.965Z,27.50
2022-08-24T01:48:10.469Z,27.40
2022-08-24T01:50:38.407Z,27.40
2022-08-24T01:53:08.744Z,27.40
2022-08-24T01:55:36.619Z,27.40
2022-08-24T01:58:05.119Z,27.40
2022-08-24T02:00:33.410Z,27.40
2022-08-24T02:03:00.632Z,27.40
2022-08-24T02:05:28.453Z,27.40
2022-08-24T02:07:56.783Z,27.40
2022-08-24T02:10:24.721Z,27.40
2022-08-24T02:12:59.074Z,27.30
2022-08-24T02:15:32.839Z,27.30
2022-08-24T02:18:00.351Z,27.30
2022-08-24T02:20:28.550Z,27.30
2022-08-24T02:22:56.623Z,27.30
2022-08-24T02:25:25.568Z,27.30
2022-08-24T02:27:52.681Z,27.30
2022-08-24T02:30:20.443Z,27.30
2022-08-24T02:32:47.643Z,27.20
2022-08-24T02:35:15.392Z,27.20
2022-08-24T02:37:43.861Z,27.20
2022-08-24T02:40:14.142Z,27.20
2022-08-24T02:42:41.938Z,27.20
2022-08-24T02:45:10.633Z,27.10
2022-08-24T02:47:39.442Z,27.10
2022-08-24T02:50:12.201Z,27.10
2022-08-24T02:52:40.524Z,27.10
2022-08-24T02:55:11.231Z,27.10
2022-08-24T02:57:38.891Z,27.00
2022-08-24T03:00:10.963Z,27.10
2022-08-24T03:02:43.427Z,27.10
2022-08-24T03:05:12.145Z,27.00
2022-08-24T03:07:39.248Z,27.00
2022-08-24T03:10:07.023Z,27.00
2022-08-24T03:12:37.174Z,27.00
2022-08-24T03:15:10.560Z,27.00
2022-08-24T03:17:39.804Z,26.90
2022-08-24T03:20:13.284Z,26.90
2022-08-24T03:22:41.176Z,26.90
2022-08-24T03:25:09.475Z,26.90
2022-08-24T03:27:37.842Z,26.90
2022-08-24T03:30:06.834Z,26.90
2022-08-24T03:32:36.736Z,26.90
2022-08-24T03:35:04.852Z,26.90
2022-08-24T03:37:32.882Z,26.80
2022-08-24T03:40:00.264Z,26.80
2022-08-24T03:42:27.517Z,26.80
2022-08-24T03:44:54.704Z,26.80
2022-08-24T03:47:22.813Z,26.70
2022-08-24T03:49:50.344Z,26.80
2022-08-24T03:52:18.027Z,26.80
2022-08-24T03:54:45.777Z,26.70
2022-08-24T03:57:14.388Z,26.70
2022-08-24T03:59:46.483Z,26.70
2022-08-24T04:02:14.607Z,26.70
2022-08-24T04:04:43.172Z,26.70
2022-08-24T04:07:11.572Z,26.70
2022-08-24T04:09:38.771Z,26.70
2022-08-24T04:12:05.993Z,26.70
2022-08-24T04:14:34.408Z,26.60
2022-08-24T04:17:08.127Z,26.60
2022-08-24T04:19:57.443Z,26.60
2022-08-24T04:22:30.248Z,26.60
2022-08-24T04:24:57.531Z,26.60
2022-08-24T04:27:24.832Z,26.60
2022-08-24T04:29:51.996Z,26.60
2022-08-24T04:32:19.949Z,26.60
2022-08-24T04:34:47.252Z,26.60
2022-08-24T04:37:15.660Z,26.60
2022-08-24T04:39:43.715Z,26.60
2022-08-24T04:42:15.780Z,26.50
2022-08-24T04:44:43.576Z,26.50
2022-08-24T04:47:10.733Z,26.50
2022-08-24T04:49:39.380Z,26.50
2022-08-24T04:52:08.514Z,26.50
2022-08-24T04:54:35.865Z,26.50
2022-08-24T04:57:08.683Z,26.50
2022-08-24T04:59:39.085Z,26.50
2022-08-24T05:02:07.395Z,26.50
2022-08-24T05:04:38.139Z,26.40
2022-08-24T05:07:07.143Z,26.40
2022-08-24T05:09:34.568Z,26.40
2022-08-24T05:12:05.232Z,26.40
2022-08-24T05:14:37.698Z,26.40
2022-08-24T05:17:05.100Z,26.40
2022-08-24T05:19:36.268Z,26.40
2022-08-24T05:22:03.977Z,26.40
2022-08-24T05:24:31.276Z,26.40
2022-08-24T05:27:00.349Z,26.30
2022-08-24T05:29:28.073Z,26.30
2022-08-24T05:31:55.630Z,26.30
2022-08-24T05:34:24.535Z,26.30
2022-08-24T05:36:52.109Z,26.30
2022-08-24T05:39:39.503Z,26.30
2022-08-24T05:42:08.899Z,26.40
2022-08-24T05:44:43.336Z,26.40
2022-08-24T05:47:10.845Z,26.40
2022-08-24T05:49:41.384Z,26.50
2022-08-24T05:52:09.177Z,26.50
2022-08-24T05:54:36.769Z,26.50
2022-08-24T05:57:06.405Z,26.50
2022-08-24T05:59:40.617Z,26.60
2022-08-24T06:02:16.563Z,26.60
2022-08-24T06:04:43.868Z,26.60
2022-08-24T06:07:12.017Z,26.60
2022-08-24T06:09:43.373Z,26.60
2022-08-24T06:12:14.486Z,26.60
2022-08-24T06:14:47.506Z,26.70
2022-08-24T06:17:17.125Z,26.70
2022-08-24T06:19:44.459Z,26.70
2022-08-24T06:22:11.616Z,26.70
2022-08-24T06:24:59.084Z,26.70
2022-08-24T06:27:27.971Z,26.70
2022-08-24T06:30:00.499Z,26.80
2022-08-24T06:32:47.507Z,26.80
2022-08-24T06:35:29.432Z,26.80
2022-08-24T06:37:57.479Z,26.80
2022-08-24T06:40:26.098Z,26.90
2022-08-24T06:42:54.209Z,26.90
2022-08-24T06:45:40.298Z,26.90
2022-08-24T06:48:12.081Z,26.90
2022-08-24T06:50:39.848Z,26.90
2022-08-24T06:53:06.960Z,27.00
2022-08-24T06:55:34.316Z,27.00
2022-08-24T06:58:02.562Z,27.00
2022-08-24T07:00:31.081Z,27.00
2022-08-24T07:02:58.437Z,27.10
2022-08-24T07:05:26.352Z,27.10
2022-08-24T07:08:11.914Z,27.10
2022-08-24T07:10:39.399Z,27.10
2022-08-24T07:13:10.266Z,27.20
2022-08-24T07:15:39.345Z,27.20
2022-08-24T07:18:18.148Z,27.20
2022-08-24T07:20:49.766Z,27.20
2022-08-24T07:23:20.750Z,27.30
2022-08-24T07:25:54.162Z,27.30
2022-08-24T07:28:31.590Z,27.30
2022-08-24T07:31:00.036Z,27.40
2022-08-24T07:33:27.821Z,27.40
2022-08-24T07:35:56.206Z,27.40
2022-08-24T07:38:24.131Z,27.40
2022-08-24T07:43:42.912Z,27.40
2022-08-24T07:46:10.810Z,27.50
2022-08-24T07:48:38.132Z,27.50
2022-08-24T07:51:14.804Z,27.50
2022-08-24T07:53:53.612Z,27.50
2022-08-24T07:56:25.599Z,27.60
2022-08-24T07:58:54.563Z,27.60
2022-08-24T08:01:22.599Z,27.60
2022-08-24T08:03:51.857Z,27.60
2022-08-24T08:06:19.343Z,27.60
2022-08-24T08:08:49.180Z,27.70
2022-08-24T08:11:19.417Z,27.70
2022-08-24T08:13:46.869Z,27.70
2022-08-24T08:16:14.162Z,27.60
2022-08-24T08:18:45.515Z,27.70
2022-08-24T08:21:32.092Z,27.70
2022-08-24T08:24:18.045Z,27.70
2022-08-24T08:26:54.824Z,27.80
2022-08-24T08:29:40.218Z,27.80
2022-08-24T08:32:09.896Z,27.80
2022-08-24T08:34:36.989Z,27.80
2022-08-24T08:37:04.422Z,27.80
2022-08-24T08:39:32.182Z,27.80
2022-08-24T08:42:06.203Z,27.80
2022-08-24T08:44:52.339Z,27.80
2022-08-24T08:50:57.602Z,27.90
2022-08-24T08:53:30.216Z,27.90
2022-08-24T08:56:06.556Z,27.90
2022-08-24T09:01:35.193Z,27.90
2022-08-24T09:05:02.590Z,28.00
2022-08-24T09:07:57.491Z,28.00
2022-08-24T09:10:25.839Z,28.00
2022-08-24T09:13:12.269Z,28.00
2022-08-24T09:16:15.526Z,28.00
2022-08-24T09:19:01.641Z,28.00
2022-08-24T09:21:40.576Z,28.00
2022-08-24T09:24:26.320Z,28.10
2022-08-24T09:27:25.739Z,28.10
2022-08-24T09:30:14.038Z,28.10
2022-08-24T09:33:09.089Z,28.10
2022-08-24T09:36:02.326Z,28.10
2022-08-24T09:38:53.473Z,28.10
2022-08-24T09:41:49.196Z,28.10
2022-08-24T09:44:31.495Z,28.10
2022-08-24T09:46:58.453Z,28.10
2022-08-24T09:49:43.775Z,28.10
2022-08-24T09:52:49.505Z,28.10
2022-08-24T09:55:37.865Z,28.10
2022-08-24T09:58:16.347Z,28.20
2022-08-24T10:01:00.040Z,28.20
2022-08-24T10:03:55.912Z,28.20
2022-08-24T10:06:29.111Z,28.20
2022-08-24T10:09:28.428Z,28.20
2022-08-24T10:12:02.355Z,28.20
2022-08-24T10:14:55.148Z,28.30
2022-08-24T10:17:47.149Z,28.30
2022-08-24T10:20:24.659Z,28.30
2022-08-24T10:23:16.249Z,28.40
2022-08-24T10:25:54.391Z,28.40
2022-08-24T10:28:31.332Z,28.40
2022-08-24T10:31:12.078Z,28.40
2022-08-24T10:34:06.749Z,28.50
2022-08-24T10:37:07.387Z,28.50
2022-08-24T10:40:12.162Z,28.50
2022-08-24T10:43:14.000Z,28.50
2022-08-24T10:45:56.442Z,28.50
2022-08-24T10:48:33.462Z,28.50
2022-08-24T10:51:23.886Z,28.50
2022-08-24T10:53:53.724Z,28.50
2022-08-24T10:56:30.028Z,28.50
2022-08-24T10:59:19.075Z,28.60
2022-08-24T11:02:12.271Z,28.60
2022-08-24T11:04:40.568Z,28.60
2022-08-24T11:07:19.707Z,28.60
2022-08-24T11:10:00.052Z,28.60
2022-08-24T11:12:42.671Z,28.60
2022-08-24T11:15:18.972Z,28.70
2022-08-24T11:17:58.504Z,28.70
2022-08-24T11:20:29.699Z,28.70
2022-08-24T11:23:10.292Z,28.70
2022-08-24T11:25:42.051Z,28.70
2022-08-24T11:28:32.219Z,28.70
2022-08-24T11:31:00.536Z,28.80
2022-08-24T11:33:58.474Z,28.80
2022-08-24T11:36:28.821Z,28.80
2022-08-24T11:39:14.248Z,28.90
2022-08-24T11:41:52.046Z,28.90
2022-08-24T11:44:33.113Z,28.90
2022-08-24T11:47:20.593Z,28.90
2022-08-24T11:49:54.328Z,29.00
2022-08-24T11:52:38.627Z,29.00
2022-08-24T11:55:26.524Z,29.00
2022-08-24T11:58:06.439Z,29.10
2022-08-24T12:00:50.158Z,29.10
2022-08-24T12:03:42.447Z,29.10
2022-08-24T12:06:33.540Z,29.10
2022-08-24T12:09:13.032Z,29.10
2022-08-24T12:11:44.817Z,29.10
2022-08-24T12:14:33.511Z,29.20
2022-08-24T12:17:03.556Z,29.20
2022-08-24T12:19:37.403Z,29.20
2022-08-24T12:22:08.091Z,29.20
2022-08-24T12:24:38.910Z,29.30
2022-08-24T12:27:22.889Z,29.30
2022-08-24T12:29:55.714Z,29.40
2022-08-24T12:32:30.820Z,29.40
2022-08-24T12:35:00.466Z,29.40
2022-08-24T12:37:34.913Z,29.40
2022-08-24T12:40:25.741Z,29.40
2022-08-24T12:43:03.402Z,29.40
2022-08-24T12:45:30.618Z,29.50
2022-08-24T12:48:07.667Z,29.50
2022-08-24T12:50:49.387Z,29.50
2022-08-24T12:53:22.540Z,29.60
2022-08-24T12:56:14.879Z,29.60
2022-08-24T12:58:55.290Z,29.60
2022-08-24T13:01:29.322Z,29.70
2022-08-24T13:04:16.127Z,29.70
2022-08-24T13:06:50.316Z,29.70
2022-08-24T13:09:41.873Z,29.80
2022-08-24T13:12:33.249Z,29.80
2022-08-24T13:15:45.376Z,29.90
2022-08-24T13:18:14.963Z,29.90
2022-08-24T13:20:44.965Z,29.90
2022-08-24T13:23:12.106Z,30.00
2022-08-24T13:25:48.215Z,30.10
2022-08-24T13:28:25.136Z,30.10
2022-08-24T13:30:55.083Z,30.10
2022-08-24T13:33:46.665Z,30.20
2022-08-24T13:36:32.492Z,30.20
2022-08-24T13:39:14.408Z,30.20
2022-08-24T13:42:42.773Z,30.20
2022-08-24T13:45:12.687Z,30.30
2022-08-24T13:48:04.025Z,30.40
2022-08-24T13:51:10.938Z,30.40
2022-08-24T13:54:16.106Z,30.40
2022-08-24T13:57:19.884Z,30.50
2022-08-24T13:59:57.319Z,30.50
2022-08-24T14:02:32.926Z,30.70
2022-08-24T14:05:13.074Z,30.70
2022-08-24T14:07:59.143Z,30.70
2022-08-24T14:11:02.993Z,30.80
2022-08-24T14:13:42.220Z,30.90
2022-08-24T14:16:47.951Z,30.90
2022-08-24T14:19:32.581Z,31.00
2022-08-24T14:22:29.917Z,31.00
2022-08-24T14:25:28.008Z,31.00
2022-08-24T14:27:58.194Z,31.00
2022-08-24T14:30:25.171Z,31.00
2022-08-24T14:33:00.970Z,31.10
2022-08-24T14:35:56.773Z,31.10
2022-08-24T14:38:52.841Z,31.20
2022-08-24T14:42:01.350Z,31.20
2022-08-24T14:45:02.863Z,31.30
2022-08-24T14:48:08.145Z,31.40
2022-08-24T14:50:57.075Z,31.50
2022-08-24T14:53:55.835Z,31.50
2022-08-24T14:56:45.476Z,31.50
2022-08-24T14:59:46.816Z,31.60
2022-08-24T15:02:52.765Z,31.70
2022-08-24T15:05:31.970Z,31.70
2022-08-24T15:08:09.545Z,31.70
2022-08-24T15:10:39.530Z,31.80
2022-08-24T15:13:19.208Z,31.80
2022-08-24T15:15:57.609Z,31.90
2022-08-24T15:18:36.674Z,31.90
2022-08-24T15:21:35.361Z,32.00
2022-08-24T15:24:39.023Z,32.00
2022-08-24T15:27:37.085Z,32.00
2022-08-24T15:30:07.651Z,32.00
2022-08-24T15:33:18.921Z,32.00
2022-08-24T15:35:49.374Z,32.10
2022-08-24T15:38:24.347Z,32.20
2022-08-24T15:41:12.023Z,32.30
2022-08-24T15:44:02.183Z,32.30
2022-08-24T15:46:37.210Z,32.40
2022-08-24T15:49:28.806Z,32.50
2022-08-24T15:52:21.968Z,32.60
2022-08-24T15:55:04.412Z,32.90
2022-08-24T15:57:41.247Z,33.30
2022-08-24T16:00:13.957Z,33.50
2022-08-24T16:02:41.626Z,33.60
2022-08-24T16:05:28.071Z,33.60
2022-08-24T16:07:57.859Z,33.50
2022-08-24T16:10:31.607Z,33.40
2022-08-24T16:13:17.181Z,33.40
2022-08-24T16:16:11.881Z,33.20
2022-08-24T16:18:55.523Z,33.10
2022-08-24T16:21:51.125Z,33.00
2022-08-24T16:24:21.702Z,33.00
2022-08-24T16:26:49.244Z,32.90
2022-08-24T16:29:36.379Z,32.90
2022-08-24T16:32:15.857Z,32.90
2022-08-24T16:35:09.186Z,32.90
2022-08-24T16:37:37.156Z,32.90
2022-08-24T16:40:05.814Z,32.90
2022-08-24T16:42:34.553Z,32.90
2022-08-24T16:45:03.830Z,32.90
2022-08-24T16:47:30.989Z,32.90
2022-08-24T16:49:58.893Z,33.00
2022-08-24T16:52:25.976Z,33.10
2022-08-24T16:54:53.045Z,33.10
2022-08-24T16:57:24.942Z,33.10
2022-08-24T16:59:52.956Z,33.00
2022-08-24T17:02:22.348Z,33.00
2022-08-24T17:04:50.043Z,33.00
2022-08-24T17:07:26.486Z,33.00
2022-08-24T17:09:55.539Z,33.00
2022-08-24T17:12:23.752Z,32.90
2022-08-24T17:14:53.798Z,32.80
2022-08-24T17:17:23.161Z,32.70
2022-08-24T17:19:54.756Z,32.60
2022-08-24T17:22:23.086Z,32.60
2022-08-24T17:24:50.948Z,32.50
2022-08-24T17:27:21.004Z,32.40
2022-08-24T17:29:48.276Z,32.40
2022-08-24T17:32:16.326Z,32.30
2022-08-24T17:34:43.468Z,32.20
2022-08-24T17:37:11.016Z,32.20
2022-08-24T17:39:38.258Z,32.10
2022-08-24T17:42:20.930Z,32.00
2022-08-24T17:44:53.266Z,32.00
2022-08-24T17:47:20.364Z,31.90
2022-08-24T17:49:47.363Z,31.80
2022-08-24T17:52:17.058Z,31.70
2022-08-24T17:54:44.399Z,31.60
2022-08-24T17:57:13.756Z,31.60
2022-08-24T17:59:40.964Z,31.50
2022-08-24T18:02:12.382Z,31.40
2022-08-24T18:04:40.497Z,31.30
2022-08-24T18:07:22.183Z,31.30
2022-08-24T18:10:05.832Z,31.20
2022-08-24T18:12:33.052Z,31.10
2022-08-24T18:15:01.516Z,31.10
2022-08-24T18:17:42.731Z,31.00
2022-08-24T18:20:12.078Z,31.00
2022-08-24T18:22:45.060Z,30.90
2022-08-24T18:25:13.886Z,30.90
2022-08-24T18:27:42.393Z,30.80
2022-08-24T18:30:19.750Z,30.80
2022-08-24T18:32:50.026Z,30.70
2022-08-24T18:35:17.336Z,30.70
2022-08-24T18:37:44.812Z,30.60
2022-08-24T18:40:13.303Z,30.60
2022-08-24T18:42:50.643Z,30.50
2022-08-24T18:45:18.679Z,30.60
2022-08-24T18:47:53.368Z,30.50
2022-08-24T18:50:21.212Z,30.50
2022-08-24T18:52:48.451Z,30.50
2022-08-24T18:55:16.866Z,30.40
2022-08-24T18:57:43.983Z,30.40
2022-08-24T19:00:11.783Z,30.30
2022-08-24T19:02:40.646Z,30.30
2022-08-24T19:05:34.184Z,30.30
2022-08-24T19:08:01.268Z,30.20
2022-08-24T19:10:33.651Z,30.20
2022-08-24T19:13:06.246Z,30.20
2022-08-24T19:15:39.767Z,30.20
2022-08-24T19:18:10.917Z,30.10
2022-08-24T19:20:47.464Z,30.10
2022-08-24T19:23:35.021Z,30.10
2022-08-24T19:26:03.561Z,30.10
2022-08-24T19:28:31.365Z,30.10
2022-08-24T19:31:01.439Z,30.10
2022-08-24T19:33:34.732Z,30.00
2022-08-24T19:36:02.033Z,30.00
2022-08-24T19:38:29.355Z,30.00
2022-08-24T19:40:57.909Z,30.00
2022-08-24T19:43:29.437Z,29.90
2022-08-24T19:46:05.543Z,29.90
2022-08-24T19:48:36.286Z,29.90
2022-08-24T19:51:05.711Z,29.90
2022-08-24T19:53:36.393Z,29.90
2022-08-24T19:56:05.333Z,29.80
2022-08-24T19:58:50.310Z,29.80
2022-08-24T20:01:25.962Z,29.80
2022-08-24T20:03:53.200Z,29.70
2022-08-24T20:06:23.527Z,29.70
2022-08-24T20:08:51.548Z,29.70
2022-08-24T20:11:19.656Z,29.60
2022-08-24T20:13:47.584Z,29.60
2022-08-24T20:16:19.530Z,29.60
2022-08-24T20:18:47.855Z,29.60
2022-08-24T20:21:16.076Z,29.60
2022-08-24T20:23:43.914Z,29.50
2022-08-24T20:26:12.504Z,29.50
2022-08-24T20:28:43.703Z,29.50
2022-08-24T20:31:10.788Z,29.50
2022-08-24T20:33:38.066Z,29.40
2022-08-24T20:36:07.025Z,29.40
2022-08-24T20:38:34.658Z,29.40
2022-08-24T20:41:02.299Z,29.40
2022-08-24T20:43:29.367Z,29.30
2022-08-24T20:45:57.055Z,29.40
2022-08-24T20:48:28.958Z,29.40
2022-08-24T20:50:56.593Z,29.30
2022-08-24T20:53:23.792Z,29.30
2022-08-24T20:55:51.025Z,29.30
2022-08-24T20:58:20.508Z,29.30
2022-08-24T21:00:48.397Z,29.20
2022-08-24T21:03:16.230Z,29.20
2022-08-24T21:05:43.638Z,29.20
2022-08-24T21:08:12.699Z,29.20
2022-08-24T21:10:40.786Z,29.20
2022-08-24T21:13:09.293Z,29.20
2022-08-24T21:15:38.150Z,29.20
2022-08-24T21:18:05.837Z,29.20
2022-08-24T21:20:33.043Z,29.20
2022-08-24T21:23:00.159Z,29.20
2022-08-24T21:25:27.470Z,29.10
2022-08-24T21:27:55.296Z,29.10
2022-08-24T21:30:22.767Z,29.10
2022-08-24T21:33:08.824Z,29.10
2022-08-24T21:35:37.139Z,29.00
2022-08-24T21:38:05.643Z,29.00
2022-08-24T21:40:35.571Z,29.00
2022-08-24T21:43:02.833Z,28.90
2022-08-24T21:45:36.496Z,28.90
2022-08-24T21:48:06.825Z,28.90
2022-08-24T21:50:34.842Z,28.90
2022-08-24T21:53:04.929Z,28.90
2022-08-24T21:55:32.620Z,28.80
2022-08-24T21:57:59.848Z,28.80
2022-08-24T22:00:28.149Z,28.80
2022-08-24T22:02:55.308Z,28.70
2022-08-24T22:05:22.356Z,28.70
2022-08-24T22:07:49.604Z,28.70
2022-08-24T22:10:16.687Z,28.70
2022-08-24T22:12:43.964Z,28.60
2022-08-24T22:15:13.855Z,28.70
2022-08-24T22:17:40.934Z,28.60
2022-08-24T22:20:21.682Z,28.60
2022-08-24T22:22:51.113Z,28.60
2022-08-24T22:25:18.293Z,28.50
2022-08-24T22:27:48.077Z,28.50
2022-08-24T22:30:17.785Z,28.50
2022-08-24T22:32:46.246Z,28.50
2022-08-24T22:35:14.337Z,28.50
2022-08-24T22:37:41.935Z,28.50
2022-08-24T22:40:12.440Z,28.50
2022-08-24T22:42:40.320Z,28.40
2022-08-24T22:45:09.600Z,28.40
2022-08-24T22:47:37.292Z,28.40
2022-08-24T22:50:06.001Z,28.40
2022-08-24T22:52:33.304Z,28.30
2022-08-24T22:55:00.385Z,28.30
2022-08-24T22:57:27.413Z,28.30
2022-08-24T22:59:58.519Z,28.30
2022-08-24T23:02:25.579Z,28.30
2022-08-24T23:04:52.933Z,28.30
2022-08-24T23:07:21.097Z,28.20
2022-08-24T23:09:49.554Z,28.20
2022-08-24T23:12:20.343Z,28.20
2022-08-24T23:14:50.284Z,28.20
2022-08-24T23:17:18.240Z,28.20
2022-08-24T23:20:00.724Z,28.20
2022-08-24T23:22:38.508Z,28.20
2022-08-24T23:25:08.203Z,28.20
2022-08-24T23:27:38.657Z,28.10
2022-08-24T23:30:09.721Z,28.10
2022-08-24T23:32:36.842Z,28.10
2022-08-24T23:35:05.268Z,28.10
2022-08-24T23:37:32.631Z,28.10
2022-08-24T23:39:59.796Z,28.10
2022-08-24T23:42:26.916Z,28.00
2022-08-24T23:44:54.285Z,28.00
2022-08-24T23:47:22.188Z,28.00
2022-08-24T23:49:49.170Z,28.00
2022-08-24T23:52:28.582Z,28.00
2022-08-24T23:55:00.033Z,28.00
2022-08-24T23:57:46.369Z,28.00
